Time;durP1;ratioP1;P1;durP2;ratioP2;P2;SDS_P1;SDS_P2;PMS_P1;PMS_P2;Temp;Humidity;BMP_temperature;BMP_pressure;BME280_temperature;BME280_humidity;BME280_pressure;Samples;Min_cycle;Max_cycle;Signal;HPM_P1;HPM_P2
2020/11/27 00:02:21;;;;;;;75.7;54;;;;;;;-1.31;81.77344;99235.91;;;;
2020/11/27 00:12:18;;;;;;;68.8;50.1;;;;;;;-1.54;81.58789;99231.2;;;;
2020/11/27 00:22:16;;;;;;;72.8;49.8;;;;;;;-1.74;81.63867;99222.6;;;;
2020/11/27 00:32:13;;;;;;;96.7;61;;;;;;;-2.01;82.39258;99233.52;;;;
2020/11/27 00:42:10;;;;;;;76.7;49;;;;;;;-2.16;83.97168;99246.98;;;;
2020/11/27 00:52:11;;;;;;;74.6;46;;;;;;;-2.33;83.94922;99235.27;;;;
2020/11/27 01:02:05;;;;;;;72.3;47.5;;;;;;;-2.49;84.35449;99233.89;;;;
2020/11/27 01:12:04;;;;;;;64.9;38.7;;;;;;;-2.62;84.31641;99233.93;;;;
2020/11/27 01:22:00;;;;;;;56.9;44.6;;;;;;;-2.63;84.75293;99221.75;;;;
2020/11/27 01:31:57;;;;;;;79.4;42.8;;;;;;;-2.64;84.73828;99222.78;;;;
2020/11/27 01:41:55;;;;;;;55.3;38.9;;;;;;;-2.72;85.13867;99226.45;;;;
2020/11/27 01:51:51;;;;;;;66.1;43.3;;;;;;;-2.69;85.1875;99222.58;;;;
2020/11/27 02:01:49;;;;;;;53.5;38.2;;;;;;;-2.72;85.12598;99217.72;;;;
2020/11/27 02:11:46;;;;;;;46;35.1;;;;;;;-2.79;85.2334;99227.47;;;;
2020/11/27 02:21:43;;;;;;;47.2;34.6;;;;;;;-2.84;85.62598;99206.98;;;;
2020/11/27 02:31:40;;;;;;;52.4;34.6;;;;;;;-2.82;85.9043;99202.33;;;;
2020/11/27 02:41:37;;;;;;;52.7;38.1;;;;;;;-2.75;85.99316;99210.22;;;;
2020/11/27 02:51:35;;;;;;;62.2;37;;;;;;;-2.57;86.10742;99219.09;;;;
2020/11/27 03:01:32;;;;;;;51.6;33.5;;;;;;;-2.39;85.74902;99222.89;;;;
2020/11/27 03:21:27;;;;;;;37.6;28;;;;;;;-1.86;84.75195;99241.95;;;;
2020/11/27 03:31:24;;;;;;;47.6;31.7;;;;;;;-1.68;84.16504;99236.78;;;;
2020/11/27 03:41:25;;;;;;;50.9;33.8;;;;;;;-1.56;83.5332;99251.73;;;;
2020/11/27 03:51:19;;;;;;;52.4;37.2;;;;;;;-1.48;83.2207;99240.1;;;;
2020/11/27 04:01:16;;;;;;;57.8;43;;;;;;;-1.4;82.6875;99233.75;;;;
2020/11/27 04:11:13;;;;;;;56.1;33.2;;;;;;;-1.38;82.69141;99236.98;;;;
2020/11/27 04:21:11;;;;;;;64.9;35.2;;;;;;;-1.3;82.2041;99234.89;;;;
2020/11/27 04:31:08;;;;;;;56.4;34.1;;;;;;;-1.29;81.9541;99231.23;;;;
2020/11/27 04:41:05;;;;;;;48.6;35.9;;;;;;;-1.2;82.4082;99244.98;;;;
2020/11/27 04:51:03;;;;;;;47.9;33.1;;;;;;;-1.13;82.57715;99233.33;;;;
2020/11/27 05:01:00;;;;;;;50.9;29.4;;;;;;;-1.02;82.06055;99240.56;;;;
2020/11/27 05:10:58;;;;;;;48.6;32.1;;;;;;;-1.03;81.74121;99233.65;;;;
2020/11/27 05:20:55;;;;;;;36.6;30.5;;;;;;;-0.96;81.59961;99251.29;;;;
2020/11/27 05:30:53;;;;;;;53.5;31.7;;;;;;;-0.96;81.83008;99248.64;;;;
2020/11/27 05:40:50;;;;;;;40.2;27.9;;;;;;;-0.9;81.61133;99242.51;;;;
2020/11/27 05:50:48;;;;;;;49.8;32.9;;;;;;;-0.91;81.94922;99249.63;;;;
2020/11/27 06:00:46;;;;;;;42.3;30.9;;;;;;;-0.88;81.52832;99246.55;;;;
2020/11/27 06:10:44;;;;;;;50.7;31.2;;;;;;;-0.75;81.01465;99253.55;;;;
2020/11/27 06:20:41;;;;;;;43.6;27.2;;;;;;;-0.62;80.85352;99248.93;;;;
2020/11/27 06:30:48;;;;;;;43.7;32.2;;;;;;;-0.56;81.08496;99253.38;;;;
2020/11/27 06:40:37;;;;;;;40.7;31.9;;;;;;;-0.46;80.16895;99254.69;;;;
2020/11/27 06:50:48;;;;;;;52;35.5;;;;;;;-0.41;79.91504;99260.94;;;;
2020/11/27 07:00:33;;;;;;;45.8;33;;;;;;;-0.3;79.60742;99278.75;;;;
2020/11/27 07:10:29;;;;;;;48.2;31.8;;;;;;;-0.26;79.52637;99264.03;;;;
2020/11/27 07:20:26;;;;;;;48.6;35.1;;;;;;;0.05;79.07617;99267.54;;;;
2020/11/27 07:30:27;;;;;;;50.4;34.8;;;;;;;0.07;78.96973;99265.5;;;;
2020/11/27 07:40:21;;;;;;;46.8;32.4;;;;;;;0.09;78.24707;99258.12;;;;
2020/11/27 07:50:19;;;;;;;44.3;33.1;;;;;;;0.25;77.89258;99265.44;;;;
2020/11/27 08:00:17;;;;;;;58;39.7;;;;;;;0.37;78.40918;99266.31;;;;
2020/11/27 08:10:14;;;;;;;55.7;38.3;;;;;;;0.49;78.46582;99259.2;;;;
2020/11/27 08:20:12;;;;;;;49.9;38.2;;;;;;;0.59;77.45898;99267.41;;;;
2020/11/27 08:30:10;;;;;;;52;40.3;;;;;;;0.78;76.82227;99268.98;;;;
2020/11/27 08:40:08;;;;;;;54.6;40.1;;;;;;;0.86;76.4043;99262.54;;;;
2020/11/27 08:50:05;;;;;;;43.5;38.9;;;;;;;1.34;75.16504;99267.66;;;;
2020/11/27 09:00:03;;;;;;;57.5;43.7;;;;;;;1.34;74.07129;99278.28;;;;
2020/11/27 09:10:01;;;;;;;41.4;31.7;;;;;;;1.44;75.17188;99271.35;;;;
2020/11/27 09:19:59;;;;;;;62.3;44.2;;;;;;;1.44;75.18262;99260.73;;;;
2020/11/27 09:29:56;;;;;;;48.9;37.8;;;;;;;1.43;75.0498;99253.8;;;;
2020/11/27 09:39:54;;;;;;;48.5;37.5;;;;;;;1.49;75.43457;99270.66;;;;
2020/11/27 09:49:52;;;;;;;47.9;37.1;;;;;;;1.31;75.67969;99266.28;;;;
2020/11/27 09:59:50;;;;;;;47.4;35.2;;;;;;;1.14;77.18359;99265.34;;;;
2020/11/27 10:09:48;;;;;;;39.9;26.8;;;;;;;1.07;78.1084;99259.34;;;;
2020/11/27 10:19:46;;;;;;;53;34.2;;;;;;;1.1;78.20215;99252.76;;;;
2020/11/27 10:29:44;;;;;;;44.6;31.9;;;;;;;1.04;78.58887;99249.19;;;;
2020/11/27 10:39:41;;;;;;;46;35.1;;;;;;;1.03;78.51855;99252.05;;;;
2020/11/27 10:49:39;;;;;;;53.6;33.9;;;;;;;0.96;79.73242;99252.98;;;;
2020/11/27 10:59:37;;;;;;;45.5;32.6;;;;;;;1.04;79.49316;99243.88;;;;
2020/11/27 11:09:34;;;;;;;43;31.9;;;;;;;1.09;79.9873;99241.33;;;;
2020/11/27 11:19:33;;;;;;;51;30.1;;;;;;;1.21;80.4502;99234.19;;;;
2020/11/27 11:29:30;;;;;;;51;32.6;;;;;;;1.31;80.35938;99230.95;;;;
2020/11/27 11:39:28;;;;;;;51.5;33.6;;;;;;;1.28;81.63184;99218.14;;;;
2020/11/27 11:49:26;;;;;;;48.1;32.5;;;;;;;1.49;81.51855;99218.33;;;;
2020/11/27 11:59:26;;;;;;;52.7;33;;;;;;;1.47;82.05371;99211.64;;;;
2020/11/27 12:09:21;;;;;;;48.6;32.8;;;;;;;1.54;81.81543;99212.33;;;;
2020/11/27 12:19:19;;;;;;;74.6;43;;;;;;;1.55;82.78613;99221.92;;;;
2020/11/27 12:29:17;;;;;;;85.2;50.8;;;;;;;1.51;83.44238;99210.95;;;;
2020/11/27 12:39:15;;;;;;;52.1;39.4;;;;;;;1.4;83.59473;99208.3;;;;
2020/11/27 12:49:12;;;;;;;61.8;41.2;;;;;;;1.34;84.72949;99198.62;;;;
2020/11/27 12:59:10;;;;;;;45.9;34.6;;;;;;;1.5;84.91406;99189.92;;;;
2020/11/27 13:09:08;;;;;;;44.3;34.4;;;;;;;1.53;85.08496;99183.36;;;;
2020/11/27 13:19:06;;;;;;;49.6;35.8;;;;;;;1.6;84.79199;99187.47;;;;
2020/11/27 13:29:05;;;;;;;44.7;34;;;;;;;1.48;84.91211;99190.17;;;;
2020/11/27 13:39:02;;;;;;;56.4;36.6;;;;;;;1.33;85.80762;99204.95;;;;
2020/11/27 13:49:04;;;;;;;51.5;36.8;;;;;;;1.27;86.64258;99205.89;;;;
2020/11/27 13:58:57;;;;;;;37;30.8;;;;;;;1.31;86.2002;99205.2;;;;
2020/11/27 14:08:55;;;;;;;88.8;59.6;;;;;;;1.26;86.62988;99197.12;;;;
2020/11/27 14:18:53;;;;;;;57.4;37.5;;;;;;;1.32;86.48633;99200.7;;;;
2020/11/27 14:28:51;;;;;;;50.3;36.5;;;;;;;1.39;86.10449;99211.98;;;;
2020/11/27 14:38:51;;;;;;;46.2;35.1;;;;;;;1.22;86.90723;99208.42;;;;
2020/11/27 14:48:46;;;;;;;60.4;45.5;;;;;;;1.3;86.57324;99211.55;;;;
2020/11/27 14:58:44;;;;;;;61.2;38.8;;;;;;;1.25;86.71582;99216.73;;;;
2020/11/27 15:08:42;;;;;;;63.7;39.2;;;;;;;1.27;86.58789;99214.67;;;;
2020/11/27 15:18:40;;;;;;;59.8;41.4;;;;;;;1.14;86.93457;99219.41;;;;
2020/11/27 15:28:38;;;;;;;59.1;37.8;;;;;;;1.19;87.07715;99215.02;;;;
2020/11/27 15:38:35;;;;;;;70.8;44.9;;;;;;;1.21;86.9707;99206.83;;;;
2020/11/27 15:48:34;;;;;;;66.9;43.2;;;;;;;1.22;87.12695;99205.77;;;;
2020/11/27 15:58:34;;;;;;;66.8;47.5;;;;;;;1.22;87.08301;99208.42;;;;
2020/11/27 16:08:29;;;;;;;69.8;42.3;;;;;;;1.2;87.22266;99210.52;;;;
2020/11/27 16:18:26;;;;;;;70.2;45.9;;;;;;;1.24;87.31836;99214.33;;;;
2020/11/27 16:28:24;;;;;;;58;39.9;;;;;;;1.27;87.27051;99225.3;;;;
2020/11/27 16:38:22;;;;;;;49.1;36.8;;;;;;;1.34;87.02051;99225.98;;;;
2020/11/27 16:48:28;;;;;;;74.6;51.7;;;;;;;1.35;87.27539;99226.8;;;;
2020/11/27 16:58:18;;;;;;;62.8;45.5;;;;;;;1.39;87.03125;99236.7;;;;
2020/11/27 17:08:15;;;;;;;62.4;45.3;;;;;;;1.39;87.2627;99247.32;;;;
2020/11/27 17:18:13;;;;;;;78.1;59.7;;;;;;;1.38;87.30273;99242.26;;;;
2020/11/27 17:28:11;;;;;;;66.5;48.1;;;;;;;1.41;87.24414;99239.14;;;;
2020/11/27 17:38:09;;;;;;;67;50.4;;;;;;;1.37;87.56543;99235.33;;;;
2020/11/27 17:48:06;;;;;;;68.7;48.8;;;;;;;1.39;87.39453;99236.7;;;;
2020/11/27 17:58:04;;;;;;;65;46.6;;;;;;;1.48;87.31152;99231.86;;;;
2020/11/27 18:08:02;;;;;;;69.8;51.5;;;;;;;1.53;86.7832;99239.92;;;;
2020/11/27 18:18:00;;;;;;;88.3;53.6;;;;;;;1.44;86.99609;99258.07;;;;
2020/11/27 18:27:58;;;;;;;90.3;57.4;;;;;;;1.46;87.13379;99255.98;;;;
2020/11/27 18:37:58;;;;;;;83;59.2;;;;;;;1.45;87.39453;99240.3;;;;
2020/11/27 18:47:54;;;;;;;70.5;52.3;;;;;;;1.46;87.35254;99241.89;;;;
2020/11/27 18:57:52;;;;;;;71.1;52.4;;;;;;;1.49;87.34863;99244.11;;;;
2020/11/27 19:07:49;;;;;;;70;57;;;;;;;1.38;87.72168;99236.95;;;;
2020/11/27 19:17:47;;;;;;;67.4;49;;;;;;;1.39;87.82422;99236.7;;;;
2020/11/27 19:27:45;;;;;;;87.5;63.4;;;;;;;1.39;87.82227;99238.55;;;;
2020/11/27 19:37:43;;;;;;;74.6;53.3;;;;;;;1.44;87.67871;99234.17;;;;
2020/11/27 19:47:40;;;;;;;70;48.2;;;;;;;1.46;87.9043;99234.73;;;;
2020/11/27 19:57:38;;;;;;;69;51.6;;;;;;;1.48;87.76367;99245.14;;;;
2020/11/27 20:07:36;;;;;;;82.7;54.3;;;;;;;1.41;88.1582;99231.17;;;;
2020/11/27 20:17:34;;;;;;;68.8;44.9;;;;;;;1.49;88.00879;99228.95;;;;
2020/11/27 20:27:34;;;;;;;87.4;63.5;;;;;;;1.43;87.86621;99224.58;;;;
2020/11/27 20:37:30;;;;;;;79.3;52.2;;;;;;;1.47;87.79688;99215.11;;;;
2020/11/27 20:47:27;;;;;;;60.2;44.8;;;;;;;1.47;87.54297;99223.08;;;;
2020/11/27 20:57:25;;;;;;;55.2;42.8;;;;;;;1.47;87.73926;99208.98;;;;
2020/11/27 21:07:23;;;;;;;79.4;50.6;;;;;;;1.47;87.72852;99216.95;;;;
2020/11/27 21:17:21;;;;;;;69.2;41.8;;;;;;;1.55;87.53613;99208.64;;;;
2020/11/27 21:27:19;;;;;;;85.7;52;;;;;;;1.48;87.56738;99198.14;;;;
2020/11/27 21:37:16;;;;;;;63;49.5;;;;;;;1.59;87.22363;99187.73;;;;
2020/11/27 21:47:14;;;;;;;64.1;44.5;;;;;;;1.43;87.76563;99181.27;;;;
2020/11/27 21:57:19;;;;;;;62.4;46.6;;;;;;;1.44;87.9541;99182.9;;;;
2020/11/27 22:07:10;;;;;;;68.9;48.6;;;;;;;1.54;87.42578;99204.36;;;;
2020/11/27 22:17:08;;;;;;;58.5;42.5;;;;;;;1.55;87.62402;99189.23;;;;
2020/11/27 22:27:20;;;;;;;67.7;41.4;;;;;;;1.43;88.19434;99181.27;;;;
2020/11/27 22:37:06;;;;;;;59.5;43.4;;;;;;;1.51;87.79297;99186.23;;;;
2020/11/27 22:47:01;;;;;;;71.6;49.1;;;;;;;1.54;88.02051;99191.08;;;;
2020/11/27 22:56:59;;;;;;;67.1;48.8;;;;;;;1.58;87.97266;99194.88;;;;
2020/11/27 23:06:57;;;;;;;60.2;41;;;;;;;1.58;88.08301;99176.29;;;;
2020/11/27 23:16:55;;;;;;;58.5;39.7;;;;;;;1.52;88.29004;99174.58;;;;
2020/11/27 23:26:52;;;;;;;44.3;35.4;;;;;;;1.31;88.33594;99149.45;;;;
2020/11/27 23:36:50;;;;;;;59.7;40.2;;;;;;;1.36;88.77441;99173.44;;;;
2020/11/27 23:46:48;;;;;;;57.1;36.5;;;;;;;1.43;88.6123;99173.3;;;;
2020/11/27 23:56:46;;;;;;;56.8;36.3;;;;;;;1.51;88.31152;99171.11;;;;
